Time;durP1;ratioP1;P1;durP2;ratioP2;P2;SDS_P1;SDS_P2;PMS_P1;PMS_P2;Temp;Humidity;BMP_temperature;BMP_pressure;BME280_temperature;BME280_humidity;BME280_pressure;Samples;Min_cycle;Max_cycle;Signal;HPM_P1;HPM_P2
2021/05/13 00:00:09;;;;;;;23.60;19.10;;;;;;;8.92;100.00;95338.28;1044631;28;20021;-53
2021/05/13 00:00:40;;;;;;;24.25;20.95;;;;;;;8.97;100.00;95341.09;1044648;28;20517;-54
2021/05/13 00:01:10;;;;;;;22.90;20.07;;;;;;;9.02;100.00;95333.44;1044986;28;20068;-53
2021/05/13 00:01:41;;;;;;;28.07;20.83;;;;;;;9.03;100.00;95335.84;1048947;28;20488;-54
2021/05/13 00:02:11;;;;;;;29.07;22.10;;;;;;;9.10;100.00;95340.28;1049220;28;20016;-52
2021/05/13 00:02:42;;;;;;;29.13;21.90;;;;;;;9.06;100.00;95329.38;1048975;28;20480;-54
2021/05/13 00:03:13;;;;;;;24.90;21.10;;;;;;;9.14;100.00;95328.34;1049066;28;20069;-49
2021/05/13 00:03:43;;;;;;;29.97;21.33;;;;;;;9.17;100.00;95338.44;1048663;28;20119;-51
2021/05/13 00:04:14;;;;;;;23.93;19.93;;;;;;;9.18;100.00;95330.34;1048345;28;20026;-49
2021/05/13 00:04:44;;;;;;;26.33;20.63;;;;;;;9.09;100.00;95323.69;1048623;28;20432;-53
2021/05/13 00:05:15;;;;;;;27.57;21.17;;;;;;;9.10;100.00;95329.78;1048621;28;20527;-51
2021/05/13 00:05:45;;;;;;;30.27;23.37;;;;;;;9.04;100.00;95332.19;1049264;28;20039;-53
2021/05/13 00:06:16;;;;;;;29.10;23.33;;;;;;;9.00;100.00;95322.31;1048804;28;20056;-51
2021/05/13 00:06:46;;;;;;;29.57;23.47;;;;;;;8.97;100.00;95326.13;1048911;28;20013;-51
2021/05/13 00:07:17;;;;;;;26.93;22.13;;;;;;;8.98;100.00;95333.00;1048996;28;20016;-52
2021/05/13 00:07:47;;;;;;;30.60;23.03;;;;;;;9.02;100.00;95321.09;1044502;28;20025;-52
2021/05/13 00:08:18;;;;;;;24.27;21.53;;;;;;;9.07;100.00;95323.09;1040403;28;20025;-52
2021/05/13 00:08:55;;;;;;;27.33;20.93;;;;;;;9.07;100.00;95325.75;1040472;28;20020;-49
2021/05/13 00:09:26;;;;;;;32.97;23.38;;;;;;;9.07;100.00;95326.53;1042541;28;20058;-48
2021/05/13 00:09:56;;;;;;;26.77;21.67;;;;;;;9.14;100.00;95323.91;1048743;28;20024;-52
2021/05/13 00:10:28;;;;;;;29.63;20.77;;;;;;;9.16;100.00;95321.09;1048629;28;20174;-50
2021/05/13 00:11:04;;;;;;;30.38;22.80;;;;;;;9.19;100.00;95324.09;1044853;28;20016;-52
2021/05/13 00:11:36;;;;;;;28.45;22.92;;;;;;;9.17;100.00;95325.31;1045282;28;20029;-54
2021/05/13 00:12:13;;;;;;;27.65;22.67;;;;;;;9.19;100.00;95315.41;1048670;28;20074;-53
2021/05/13 00:13:23;;;;;;;25.52;21.42;;;;;;;9.20;100.00;95315.22;1048519;28;20482;-48
2021/05/13 00:13:54;;;;;;;30.27;23.95;;;;;;;9.19;100.00;95323.28;1048219;28;20364;-50
2021/05/13 00:14:24;;;;;;;26.47;21.80;;;;;;;9.15;100.00;95314.19;1048371;28;20054;-50
2021/05/13 00:14:55;;;;;;;29.63;22.30;;;;;;;9.15;100.00;95322.88;1048614;28;20479;-49
2021/05/13 00:15:27;;;;;;;33.37;24.20;;;;;;;9.13;100.00;95319.66;1048738;28;20058;-49
2021/05/13 00:15:58;;;;;;;27.92;23.58;;;;;;;9.14;100.00;95320.47;1048604;28;20087;-50
2021/05/13 00:16:32;;;;;;;30.50;23.67;;;;;;;9.09;100.00;95321.06;1048426;28;20039;-50
2021/05/13 00:17:03;;;;;;;27.25;22.13;;;;;;;9.04;100.00;95323.53;1045426;28;20021;-53
2021/05/13 00:17:33;;;;;;;39.00;27.53;;;;;;;9.00;100.00;95317.06;1048906;28;20111;-50
2021/05/13 00:18:04;;;;;;;28.33;24.37;;;;;;;9.02;100.00;95318.47;1044456;28;20024;-51
2021/05/13 00:18:35;;;;;;;28.97;24.33;;;;;;;9.07;100.00;95318.66;1044621;28;20025;-50
2021/05/13 00:19:10;;;;;;;27.47;23.87;;;;;;;9.05;100.00;95320.69;1048567;28;20451;-52
2021/05/13 00:19:40;;;;;;;31.63;23.92;;;;;;;9.09;100.00;95313.19;1048629;28;20066;-49
2021/05/13 00:20:13;;;;;;;27.60;22.67;;;;;;;9.11;100.00;95315.63;1049351;28;20024;-49
2021/05/13 00:20:43;;;;;;;24.38;21.60;;;;;;;9.11;100.00;95318.25;1048495;28;20461;-50
2021/05/13 00:21:14;;;;;;;28.27;22.37;;;;;;;9.11;100.00;95319.06;1048843;28;20025;-51
2021/05/13 00:21:44;;;;;;;28.57;22.33;;;;;;;9.11;100.00;95311.19;1048684;28;20453;-49
2021/05/13 00:22:15;;;;;;;30.00;23.00;;;;;;;9.09;100.00;95307.16;1048551;28;20374;-51
2021/05/13 00:22:45;;;;;;;28.37;23.57;;;;;;;9.09;100.00;95313.19;1048827;28;20020;-50
2021/05/13 00:23:16;;;;;;;28.03;23.17;;;;;;;9.09;100.00;95310.56;1048894;28;20024;-53
2021/05/13 00:23:46;;;;;;;27.03;23.13;;;;;;;9.07;100.00;95316.03;1048945;28;20028;-51
2021/05/13 00:24:17;;;;;;;28.10;23.63;;;;;;;9.06;100.00;95316.22;1048686;28;20028;-53
2021/05/13 00:24:47;;;;;;;33.37;25.07;;;;;;;9.03;100.00;95308.78;1048441;28;20036;-50
2021/05/13 00:25:18;;;;;;;26.13;22.90;;;;;;;9.03;100.00;95314.03;1048665;28;20039;-49
2021/05/13 00:25:49;;;;;;;28.13;24.52;;;;;;;9.04;100.00;95305.94;1044377;28;20025;-53
2021/05/13 00:26:35;;;;;;;33.67;24.65;;;;;;;9.07;100.00;95310.78;1044381;28;20064;-53
2021/05/13 00:27:07;;;;;;;32.70;25.23;;;;;;;9.06;100.00;95308.34;1048369;28;20063;-51
2021/05/13 00:27:38;;;;;;;28.63;24.75;;;;;;;9.06;100.00;95306.56;1048646;28;20064;-50
2021/05/13 00:28:09;;;;;;;36.07;26.53;;;;;;;9.04;100.00;95305.13;1048823;28;20121;-52
2021/05/13 00:28:39;;;;;;;31.70;24.23;;;;;;;8.99;100.00;95302.34;1048688;28;20008;-50
2021/05/13 00:29:12;;;;;;;31.20;25.20;;;;;;;8.96;100.00;95298.28;1044532;28;20016;-52
2021/05/13 00:29:42;;;;;;;29.88;24.45;;;;;;;8.99;100.00;95300.50;1044515;28;20409;-52
2021/05/13 00:30:13;;;;;;;31.53;25.40;;;;;;;8.93;100.00;95297.88;1044707;28;20083;-53
2021/05/13 00:30:44;;;;;;;32.00;25.33;;;;;;;9.00;100.00;95299.50;1045061;28;20040;-53
2021/05/13 00:31:15;;;;;;;34.50;26.43;;;;;;;9.02;100.00;95296.69;1048478;28;20016;-53
2021/05/13 00:31:46;;;;;;;29.30;24.33;;;;;;;9.02;100.00;95291.41;1048650;28;20426;-53
2021/05/13 00:32:16;;;;;;;30.93;24.73;;;;;;;9.01;100.00;95297.69;1048368;28;20112;-52
2021/05/13 00:32:47;;;;;;;33.23;26.10;;;;;;;8.98;100.00;95291.00;1052572;28;20020;-51
2021/05/13 00:33:17;;;;;;;33.00;25.50;;;;;;;8.89;100.00;95302.75;1052517;28;20019;-54
2021/05/13 00:33:48;;;;;;;29.00;25.10;;;;;;;8.96;100.00;95298.28;1052682;28;20023;-54
2021/05/13 00:34:18;;;;;;;33.77;27.83;;;;;;;9.00;100.00;95293.44;1052304;28;20086;-51
2021/05/13 00:34:48;;;;;;;28.27;22.87;;;;;;;9.00;100.00;95296.06;1049532;28;20095;-55
2021/05/13 00:35:19;;;;;;;27.73;23.70;;;;;;;9.02;100.00;95294.84;1049216;28;20012;-53
2021/05/13 00:35:49;;;;;;;28.00;23.60;;;;;;;9.03;100.00;95303.50;1048768;28;20100;-52
2021/05/13 00:36:20;;;;;;;27.97;24.23;;;;;;;9.02;100.00;95296.69;1048339;28;20052;-50
2021/05/13 00:36:51;;;;;;;32.67;25.40;;;;;;;9.04;100.00;95302.50;1044546;28;20013;-51
2021/05/13 00:37:21;;;;;;;26.90;22.87;;;;;;;9.06;100.00;95295.22;1040417;28;20055;-51
2021/05/13 00:37:52;;;;;;;27.53;23.53;;;;;;;9.07;100.00;95294.22;1040335;28;20438;-52
2021/05/13 00:38:22;;;;;;;32.47;24.87;;;;;;;9.09;100.00;95297.44;1044416;28;20025;-51
2021/05/13 00:38:52;;;;;;;30.33;24.77;;;;;;;9.10;100.00;95295.63;1048630;28;20154;-50
2021/05/13 00:39:23;;;;;;;31.03;25.27;;;;;;;9.11;100.00;95297.22;1048369;28;20090;-51
2021/05/13 00:39:53;;;;;;;31.30;24.27;;;;;;;9.10;100.00;95293.00;1044448;28;20025;-50
2021/05/13 00:40:24;;;;;;;31.40;24.47;;;;;;;9.06;100.00;95293.44;1044268;28;20469;-52
2021/05/13 00:40:54;;;;;;;33.67;25.63;;;;;;;9.07;100.00;95294.22;1044500;28;20024;-50
2021/05/13 00:41:25;;;;;;;36.87;26.33;;;;;;;9.04;100.00;95302.50;1048487;28;20020;-52
2021/05/13 00:41:56;;;;;;;34.25;26.77;;;;;;;9.06;100.00;95305.72;1049030;28;20039;-52
2021/05/13 00:42:27;;;;;;;32.33;25.10;;;;;;;9.04;100.00;95300.69;1048685;28;20028;-53
2021/05/13 00:42:57;;;;;;;37.53;25.40;;;;;;;9.01;100.00;95300.31;1048584;28;20032;-52
2021/05/13 00:43:28;;;;;;;33.00;26.23;;;;;;;8.98;100.00;95303.34;1048744;28;20021;-50
2021/05/13 00:43:58;;;;;;;31.07;25.07;;;;;;;8.94;100.00;95295.03;1048763;28;20028;-51
2021/05/13 00:44:29;;;;;;;36.13;25.70;;;;;;;8.99;100.00;95297.88;1048612;28;20444;-51
2021/05/13 00:45:00;;;;;;;35.20;25.40;;;;;;;9.00;100.00;95296.06;1048615;28;20025;-50
2021/05/13 00:45:30;;;;;;;31.87;24.77;;;;;;;9.02;100.00;95294.03;1048493;28;20020;-53
2021/05/13 00:46:01;;;;;;;32.23;25.60;;;;;;;9.02;100.00;95288.78;1044284;28;20267;-50
2021/05/13 00:46:32;;;;;;;31.37;23.70;;;;;;;9.02;100.00;95286.16;1044284;28;20020;-50
2021/05/13 00:47:03;;;;;;;35.70;27.27;;;;;;;9.03;100.00;95298.25;1048394;28;20059;-53
2021/05/13 00:47:36;;;;;;;34.20;24.77;;;;;;;9.02;100.00;95286.16;1048598;28;20058;-51
2021/05/13 00:48:13;;;;;;;28.85;23.85;;;;;;;8.99;100.00;95287.38;1048657;28;20021;-51
2021/05/13 00:48:46;;;;;;;32.17;25.08;;;;;;;8.94;100.00;95294.25;1048460;28;20031;-53
2021/05/13 00:49:18;;;;;;;37.80;26.50;;;;;;;8.97;100.00;95291.22;1048330;28;20033;-53
2021/05/13 00:49:48;;;;;;;31.65;25.67;;;;;;;8.93;100.00;95282.94;1048399;28;20048;-52
2021/05/13 00:50:19;;;;;;;29.73;23.43;;;;;;;8.92;100.00;95280.53;1048825;28;20082;-51
2021/05/13 00:50:49;;;;;;;27.90;22.93;;;;;;;8.95;100.00;95286.16;1048654;28;20103;-52
2021/05/13 00:51:20;;;;;;;30.80;25.23;;;;;;;8.94;100.00;95291.63;1048823;28;20048;-52
2021/05/13 00:51:50;;;;;;;33.20;24.70;;;;;;;8.93;100.00;95284.75;1048712;28;20025;-51
2021/05/13 00:52:22;;;;;;;32.47;24.33;;;;;;;8.88;100.00;95285.38;1048806;28;20020;-51
2021/05/13 00:52:52;;;;;;;33.05;25.58;;;;;;;8.85;100.00;95281.34;1048332;28;20107;-50
2021/05/13 00:53:23;;;;;;;34.83;26.87;;;;;;;8.91;100.00;95284.94;1044442;28;20100;-52
2021/05/13 00:53:53;;;;;;;29.60;24.27;;;;;;;8.93;100.00;95282.94;1040536;28;20128;-50
2021/05/13 00:54:24;;;;;;;34.07;24.67;;;;;;;8.96;100.00;95285.16;1040294;28;20055;-50
2021/05/13 00:54:54;;;;;;;30.47;24.00;;;;;;;8.97;100.00;95275.47;1036241;28;20028;-51
2021/05/13 00:55:25;;;;;;;31.77;26.50;;;;;;;8.99;100.00;95286.59;1035893;28;20049;-51
2021/05/13 00:55:55;;;;;;;31.60;26.10;;;;;;;9.00;100.00;95277.66;1040346;28;20390;-51
2021/05/13 00:56:29;;;;;;;32.33;25.07;;;;;;;8.95;100.00;95280.91;1039985;28;20116;-50
2021/05/13 00:56:59;;;;;;;32.35;26.40;;;;;;;8.97;100.00;95284.13;1044796;28;20021;-53
2021/05/13 00:57:30;;;;;;;32.90;25.27;;;;;;;9.00;100.00;95277.66;1048496;28;20056;-50
2021/05/13 00:58:02;;;;;;;29.92;24.40;;;;;;;8.99;100.00;95278.69;1040934;28;20072;-50
2021/05/13 00:58:35;;;;;;;33.20;26.13;;;;;;;8.93;100.00;95282.94;1040447;28;20124;-52
2021/05/13 00:59:07;;;;;;;30.35;24.40;;;;;;;8.95;100.00;95280.13;1032102;28;20061;-52
2021/05/13 00:59:39;;;;;;;31.73;25.77;;;;;;;8.95;100.00;95269.63;1034056;28;20053;-51
2021/05/13 01:02:16;;;;;;;30.50;24.60;;;;;;;9.04;100.00;95273.63;1044157;28;20021;-52
2021/05/13 01:02:46;;;;;;;30.40;25.53;;;;;;;9.01;100.00;95274.03;1044095;28;20079;-50
2021/05/13 01:03:17;;;;;;;32.13;25.70;;;;;;;9.05;100.00;95272.63;1036574;28;20022;-52
2021/05/13 01:03:47;;;;;;;31.00;24.80;;;;;;;9.06;100.00;95277.69;1038424;28;20438;-50
2021/05/13 01:04:19;;;;;;;26.40;23.33;;;;;;;9.04;100.00;95273.63;1044284;28;20037;-52
2021/05/13 01:04:49;;;;;;;29.02;25.10;;;;;;;9.03;100.00;95272.00;1041022;28;20147;-54
2021/05/13 01:05:21;;;;;;;32.80;26.23;;;;;;;9.01;100.00;95269.59;1048469;28;20039;-54
2021/05/13 01:05:51;;;;;;;33.00;26.60;;;;;;;9.04;100.00;95277.06;1048319;28;20028;-51
2021/05/13 01:06:21;;;;;;;28.97;24.20;;;;;;;9.05;100.00;95273.44;1048621;28;20028;-53
2021/05/13 01:06:52;;;;;;;32.27;26.27;;;;;;;9.02;100.00;95271.22;1048362;28;20027;-50
2021/05/13 01:07:23;;;;;;;28.10;25.07;;;;;;;9.00;100.00;95267.16;1044290;28;20059;-53
2021/05/13 01:07:53;;;;;;;26.93;24.03;;;;;;;9.01;100.00;95269.59;1040077;28;20111;-53
2021/05/13 01:08:24;;;;;;;30.20;24.90;;;;;;;8.97;100.00;95270.22;1040499;28;20458;-53
2021/05/13 01:08:55;;;;;;;32.93;26.30;;;;;;;9.01;100.00;95263.53;1044438;28;20025;-52
2021/05/13 01:09:28;;;;;;;32.50;25.63;;;;;;;9.00;100.00;95264.53;1044523;28;20032;-53
2021/05/13 01:09:59;;;;;;;34.38;26.92;;;;;;;9.06;100.00;95264.53;1045142;28;20032;-52
2021/05/13 01:10:30;;;;;;;31.60;27.13;;;;;;;9.06;100.00;95264.53;1048722;28;20063;-53
2021/05/13 01:11:00;;;;;;;36.03;26.17;;;;;;;9.07;100.00;95262.72;1048715;28;20121;-51
2021/05/13 01:11:31;;;;;;;33.20;26.50;;;;;;;9.07;100.00;95257.47;1048928;28;20746;-50
2021/05/13 01:12:08;;;;;;;31.17;24.60;;;;;;;9.09;100.00;95263.31;1048831;28;20021;-53
2021/05/13 01:12:40;;;;;;;29.50;25.27;;;;;;;9.05;100.00;95262.13;1048773;28;20012;-53
2021/05/13 01:13:18;;;;;;;30.60;25.50;;;;;;;9.03;100.00;95261.50;1048754;28;20381;-53
2021/05/13 01:13:58;;;;;;;27.60;24.63;;;;;;;9.01;100.00;95255.66;1048728;28;20035;-50
2021/05/13 01:15:08;;;;;;;30.02;24.25;;;;;;;8.93;100.00;95256.69;1052905;28;20058;-51
2021/05/13 01:15:44;;;;;;;28.85;24.70;;;;;;;8.97;100.00;95259.72;1052688;28;20028;-51
2021/05/13 01:16:25;;;;;;;30.35;25.70;;;;;;;8.95;100.00;95262.53;1048439;28;20055;-50
2021/05/13 01:17:15;;;;;;;30.30;26.10;;;;;;;8.94;100.00;95260.13;1048765;28;20020;-52
2021/05/13 01:17:57;;;;;;;32.58;26.30;;;;;;;8.93;100.00;95259.31;1048691;28;20107;-51
2021/05/13 01:18:27;;;;;;;34.42;27.33;;;;;;;8.87;100.00;95255.69;1048437;28;20255;-51
2021/05/13 01:18:58;;;;;;;29.60;25.33;;;;;;;8.87;100.00;95252.28;1044436;28;20025;-50
2021/05/13 01:19:29;;;;;;;30.90;25.58;;;;;;;8.87;100.00;95255.69;1044639;28;20025;-50
2021/05/13 01:19:59;;;;;;;33.07;26.77;;;;;;;8.88;100.00;95253.88;1041890;28;20022;-51
2021/05/13 01:20:30;;;;;;;31.97;26.07;;;;;;;8.87;100.00;95253.06;1044594;28;20346;-51
2021/05/13 01:21:00;;;;;;;31.60;27.13;;;;;;;8.87;100.00;95252.28;1048454;28;20077;-50
2021/05/13 01:21:37;;;;;;;34.53;27.47;;;;;;;8.81;100.00;95250.47;1048363;28;20078;-52
2021/05/13 01:22:08;;;;;;;38.88;28.95;;;;;;;8.77;100.00;95252.69;1048575;28;20504;-51
2021/05/13 01:22:38;;;;;;;33.20;27.43;;;;;;;8.77;100.00;95254.50;1048275;28;20027;-53
2021/05/13 01:23:11;;;;;;;31.70;26.53;;;;;;;8.74;100.00;95257.53;1048515;28;20492;-53
2021/05/13 01:23:43;;;;;;;31.95;27.88;;;;;;;8.71;100.00;95253.50;1048309;28;20044;-51
2021/05/13 01:24:13;;;;;;;35.95;27.35;;;;;;;8.71;100.00;95248.25;1048492;28;20464;-53
2021/05/13 01:24:44;;;;;;;36.80;28.80;;;;;;;8.76;100.00;95256.34;1048574;28;20021;-50
2021/05/13 01:25:15;;;;;;;30.87;26.83;;;;;;;8.75;100.00;95254.72;1044394;28;20092;-49
2021/05/13 01:25:52;;;;;;;35.03;28.70;;;;;;;8.73;100.00;95250.66;1040292;28;20025;-53
2021/05/13 01:26:22;;;;;;;34.10;27.77;;;;;;;8.74;100.00;95250.47;1040156;28;20118;-52
2021/05/13 01:26:53;;;;;;;38.47;28.63;;;;;;;8.68;100.00;95253.91;1041289;28;20018;-53
2021/05/13 01:27:23;;;;;;;34.80;27.77;;;;;;;8.64;100.00;95237.78;1045298;28;20612;-53
2021/05/13 01:28:00;;;;;;;35.03;27.80;;;;;;;8.66;100.00;95251.50;1044196;28;20477;-49
2021/05/13 01:28:30;;;;;;;34.45;27.98;;;;;;;8.65;100.00;95251.69;1048311;28;20466;-53
2021/05/13 01:29:01;;;;;;;31.00;26.33;;;;;;;8.69;100.00;95250.28;1048359;28;20095;-50
2021/05/13 01:29:32;;;;;;;29.43;25.73;;;;;;;8.68;100.00;95248.66;1048578;28;20016;-51
2021/05/13 01:30:03;;;;;;;38.70;28.20;;;;;;;8.69;100.00;95245.81;1048392;28;20091;-52
2021/05/13 01:30:34;;;;;;;30.98;25.27;;;;;;;8.68;100.00;95253.91;1048595;28;20039;-51
2021/05/13 01:31:04;;;;;;;34.70;28.57;;;;;;;8.70;100.00;95250.06;1048443;28;20410;-53
2021/05/13 01:31:35;;;;;;;34.63;27.43;;;;;;;8.70;100.00;95252.69;1048511;28;20499;-50
2021/05/13 01:32:05;;;;;;;30.37;25.33;;;;;;;8.68;100.00;95252.13;1052248;28;20016;-52
2021/05/13 01:32:36;;;;;;;32.30;27.07;;;;;;;8.63;100.00;95246.66;1048482;28;20028;-53
2021/05/13 01:33:06;;;;;;;30.87;25.67;;;;;;;8.63;100.00;95246.66;1048337;28;20112;-50
2021/05/13 01:33:41;;;;;;;32.23;27.00;;;;;;;8.63;100.00;95245.84;1048578;28;20020;-52
2021/05/13 01:34:12;;;;;;;33.08;26.65;;;;;;;8.68;100.00;95246.88;1048266;28;20025;-52
2021/05/13 01:34:42;;;;;;;30.23;26.53;;;;;;;8.70;100.00;95249.28;1048212;28;20439;-50
2021/05/13 01:35:13;;;;;;;30.20;25.10;;;;;;;8.68;100.00;95246.88;1044165;28;20039;-52
2021/05/13 01:35:43;;;;;;;30.63;24.80;;;;;;;8.62;100.00;95249.47;1044312;28;20021;-54
2021/05/13 01:36:14;;;;;;;30.43;26.73;;;;;;;8.58;100.00;95248.25;1040395;28;20458;-53
2021/05/13 01:36:45;;;;;;;33.63;27.37;;;;;;;8.56;100.00;95247.66;1044583;28;20017;-52
2021/05/13 01:37:15;;;;;;;33.03;27.63;;;;;;;8.50;100.00;95246.66;1044133;28;20028;-53
2021/05/13 01:37:46;;;;;;;30.07;26.33;;;;;;;8.49;100.00;95250.31;1044357;28;20132;-52
2021/05/13 01:38:17;;;;;;;32.43;26.67;;;;;;;8.46;100.00;95246.28;1044341;28;20021;-50
2021/05/13 01:38:48;;;;;;;32.90;28.15;;;;;;;8.44;100.00;95247.47;1044617;28;20032;-49
2021/05/13 01:39:18;;;;;;;34.37;28.50;;;;;;;8.45;100.00;95252.50;1048531;28;20051;-52
2021/05/13 01:39:50;;;;;;;32.03;25.70;;;;;;;8.45;100.00;95247.28;1048461;28;20496;-50
2021/05/13 01:40:21;;;;;;;31.58;26.55;;;;;;;8.48;100.00;95249.50;1044827;28;20025;-50
2021/05/13 01:40:59;;;;;;;31.10;27.30;;;;;;;8.47;100.00;95253.13;1048427;28;20039;-50
2021/05/13 01:41:29;;;;;;;35.78;27.95;;;;;;;8.42;100.00;95254.72;1048531;28;20016;-52
2021/05/13 01:42:00;;;;;;;29.53;25.37;;;;;;;8.42;100.00;95250.28;1049869;28;20020;-50
2021/05/13 01:42:30;;;;;;;32.50;27.30;;;;;;;8.41;100.00;95248.69;1052512;28;20020;-50
2021/05/13 01:43:01;;;;;;;31.77;26.53;;;;;;;8.41;100.00;95248.69;1052576;28;20047;-50
2021/05/13 01:43:32;;;;;;;34.47;27.43;;;;;;;8.42;100.00;95252.09;1048214;28;20062;-50
2021/05/13 01:44:03;;;;;;;32.50;28.00;;;;;;;8.42;100.00;95252.09;1044417;28;20017;-53
2021/05/13 01:44:33;;;;;;;30.50;26.45;;;;;;;8.42;100.00;95249.47;1036295;28;20021;-54
2021/05/13 01:45:04;;;;;;;29.97;25.57;;;;;;;8.43;100.00;95249.28;1032331;28;20027;-51
2021/05/13 01:45:35;;;;;;;32.15;27.23;;;;;;;8.40;100.00;95252.28;1032161;28;20450;-51
2021/05/13 01:46:06;;;;;;;30.87;27.20;;;;;;;8.41;100.00;95255.72;1036254;28;20483;-53
2021/05/13 01:46:36;;;;;;;31.75;26.75;;;;;;;8.40;100.00;95249.69;1044641;28;20029;-50
2021/05/13 01:47:07;;;;;;;31.80;26.47;;;;;;;8.38;100.00;95249.09;1048641;28;20480;-54
2021/05/13 01:47:37;;;;;;;32.07;27.07;;;;;;;8.38;100.00;95254.31;1052383;28;20091;-51
2021/05/13 01:48:08;;;;;;;37.40;28.60;;;;;;;8.39;100.00;95253.28;1052869;28;20027;-51
2021/05/13 01:48:38;;;;;;;31.53;26.27;;;;;;;8.41;100.00;95253.91;1052645;28;20098;-50
2021/05/13 01:49:19;;;;;;;35.43;26.90;;;;;;;8.40;100.00;95252.28;1048616;28;20148;-53
2021/05/13 01:49:50;;;;;;;30.15;26.10;;;;;;;8.39;100.00;95252.50;1048617;28;20072;-53
2021/05/13 01:50:20;;;;;;;30.60;26.87;;;;;;;8.40;100.00;95251.50;1048260;28;20048;-53
2021/05/13 01:50:51;;;;;;;31.83;26.27;;;;;;;8.40;100.00;95254.91;1044046;28;20057;-50
2021/05/13 01:51:22;;;;;;;33.03;26.97;;;;;;;8.38;100.00;95259.56;1039883;28;20088;-53
2021/05/13 01:51:52;;;;;;;32.43;26.63;;;;;;;8.34;100.00;95255.72;1040082;28;20489;-51
2021/05/13 01:52:23;;;;;;;33.80;28.67;;;;;;;8.35;100.00;95254.69;1044215;28;20108;-52
2021/05/13 01:52:53;;;;;;;33.23;28.00;;;;;;;8.35;100.00;95254.69;1048482;28;20097;-54
2021/05/13 01:53:24;;;;;;;33.30;27.87;;;;;;;8.33;100.00;95252.28;1052481;28;20028;-53
2021/05/13 01:53:55;;;;;;;31.83;27.77;;;;;;;8.35;100.00;95254.69;1048480;28;20391;-52
2021/05/13 01:54:27;;;;;;;35.75;26.75;;;;;;;8.35;100.00;95258.16;1048232;28;20024;-53
2021/05/13 01:54:58;;;;;;;33.72;27.83;;;;;;;8.37;100.00;95257.94;1048393;28;20067;-50
2021/05/13 01:55:28;;;;;;;37.50;29.40;;;;;;;8.41;100.00;95255.72;1049031;28;20027;-50
2021/05/13 01:55:58;;;;;;;35.80;28.27;;;;;;;8.41;100.00;95245.22;1047942;28;20036;-50
2021/05/13 01:56:29;;;;;;;33.20;28.20;;;;;;;8.40;100.00;95254.91;1044161;28;20044;-51
2021/05/13 01:57:06;;;;;;;30.47;26.80;;;;;;;8.39;100.00;95255.13;1044316;28;20025;-50
2021/05/13 01:57:36;;;;;;;32.83;26.35;;;;;;;8.38;100.00;95256.13;1048650;28;20021;-50
2021/05/13 01:58:07;;;;;;;32.70;27.27;;;;;;;8.42;100.00;95254.72;1048922;28;20111;-51
2021/05/13 01:58:38;;;;;;;33.57;28.43;;;;;;;8.41;100.00;95247.84;1048342;28;20063;-51
2021/05/13 01:59:09;;;;;;;31.40;26.90;;;;;;;8.42;100.00;95252.09;1048400;28;20031;-51
2021/05/13 01:59:39;;;;;;;35.63;27.23;;;;;;;8.41;100.00;95247.84;1048572;28;20416;-50
2021/05/13 02:00:10;;;;;;;34.20;26.47;;;;;;;8.42;100.00;95249.47;1048125;28;20403;-51
2021/05/13 02:00:43;;;;;;;28.45;24.20;;;;;;;8.43;100.00;95251.09;1052677;28;20052;-51
2021/05/13 02:01:15;;;;;;;29.23;25.60;;;;;;;8.42;100.00;95245.03;1048630;28;20033;-52
2021/05/13 02:01:46;;;;;;;34.00;28.05;;;;;;;8.49;100.00;95250.31;1048480;28;20035;-50
2021/05/13 02:02:16;;;;;;;33.40;27.40;;;;;;;8.52;100.00;95247.28;1048599;28;20086;-52
2021/05/13 02:02:48;;;;;;;29.00;25.20;;;;;;;8.52;100.00;95244.66;1048660;28;20040;-51
2021/05/13 02:03:19;;;;;;;29.75;26.27;;;;;;;8.54;100.00;95245.25;1048591;28;20020;-51
2021/05/13 02:03:50;;;;;;;29.50;24.23;;;;;;;8.52;100.00;95244.66;1044563;28;20017;-51
2021/05/13 02:04:20;;;;;;;33.00;27.33;;;;;;;8.51;100.00;95243.84;1044613;28;20029;-50
2021/05/13 02:04:51;;;;;;;33.67;25.27;;;;;;;8.51;100.00;95246.44;1044283;28;20044;-50
2021/05/13 02:05:22;;;;;;;32.20;27.33;;;;;;;8.49;100.00;95248.50;1044672;28;20383;-52
2021/05/13 02:05:53;;;;;;;37.03;26.80;;;;;;;8.52;100.00;95240.22;1048399;28;20028;-50
2021/05/13 02:06:23;;;;;;;34.00;26.08;;;;;;;8.52;100.00;95242.03;1048062;28;20025;-48
2021/05/13 02:06:54;;;;;;;30.57;26.20;;;;;;;8.50;100.00;95244.88;1048496;28;20032;-51
2021/05/13 02:07:24;;;;;;;33.00;26.67;;;;;;;8.47;100.00;95237.41;1048837;28;20012;-49
2021/05/13 02:07:55;;;;;;;33.43;27.30;;;;;;;8.41;100.00;95242.59;1048527;28;20056;-51
2021/05/13 02:08:26;;;;;;;36.42;29.60;;;;;;;8.46;100.00;95240.22;1048216;28;20020;-52
2021/05/13 02:08:56;;;;;;;32.93;27.50;;;;;;;8.43;100.00;95241.41;1048285;28;20048;-49
2021/05/13 02:09:27;;;;;;;31.57;26.07;;;;;;;8.45;100.00;95249.09;1048349;28;20016;-48
2021/05/13 02:09:57;;;;;;;33.03;27.77;;;;;;;8.43;100.00;95241.41;1044309;28;20047;-51
2021/05/13 02:10:27;;;;;;;34.80;27.13;;;;;;;8.39;100.00;95239.38;1048230;28;20047;-49
2021/05/13 02:10:58;;;;;;;35.27;28.73;;;;;;;8.38;100.00;95241.22;1048395;28;20028;-49
2021/05/13 02:11:29;;;;;;;33.93;28.00;;;;;;;8.37;100.00;95242.22;1048487;28;20033;-50
2021/05/13 02:11:59;;;;;;;32.23;27.60;;;;;;;8.34;100.00;95242.63;1048907;28;20455;-49
2021/05/13 02:12:30;;;;;;;36.07;27.73;;;;;;;8.33;100.00;95241.00;1048398;28;20024;-49
2021/05/13 02:13:00;;;;;;;35.63;29.00;;;;;;;8.38;100.00;95235.13;1048995;28;20050;-51
2021/05/13 02:13:31;;;;;;;35.73;28.47;;;;;;;8.37;100.00;95242.22;1049482;28;20024;-49
2021/05/13 02:14:01;;;;;;;38.40;30.73;;;;;;;8.34;100.00;95238.16;1049005;28;20465;-51
2021/05/13 02:14:32;;;;;;;41.93;30.93;;;;;;;8.33;100.00;95241.00;1049313;28;20077;-51
2021/05/13 02:15:05;;;;;;;36.00;28.70;;;;;;;8.34;100.00;95240.00;1048993;28;20021;-50
2021/05/13 02:15:35;;;;;;;32.40;27.08;;;;;;;8.33;100.00;95235.75;1049192;28;20032;-51
2021/05/13 02:16:06;;;;;;;38.73;29.53;;;;;;;8.36;100.00;95236.13;1045257;28;20029;-49
2021/05/13 02:16:36;;;;;;;33.07;28.07;;;;;;;8.35;100.00;95236.34;1041762;28;20017;-50
2021/05/13 02:17:07;;;;;;;37.43;28.87;;;;;;;8.35;100.00;95236.34;1041260;28;20044;-51
2021/05/13 02:17:37;;;;;;;35.77;28.37;;;;;;;8.34;100.00;95240.78;1041177;28;20486;-49
2021/05/13 02:18:08;;;;;;;38.87;30.53;;;;;;;8.31;100.00;95235.94;1041379;28;20099;-49
2021/05/13 02:18:39;;;;;;;42.50;31.10;;;;;;;8.30;100.00;95239.56;1049043;28;20381;-52
2021/05/13 02:19:09;;;;;;;38.65;30.30;;;;;;;8.34;100.00;95237.38;1049382;28;20017;-51
2021/05/13 02:19:40;;;;;;;37.97;32.00;;;;;;;8.36;100.00;95230.09;1049427;28;20043;-52
2021/05/13 02:20:12;;;;;;;39.93;30.27;;;;;;;8.39;100.00;95234.13;1049633;28;20044;-50
2021/05/13 02:20:42;;;;;;;37.08;29.05;;;;;;;8.31;100.00;95240.41;1049501;28;20103;-50
2021/05/13 02:21:13;;;;;;;36.67;29.03;;;;;;;8.35;100.00;95229.31;1049925;28;20362;-50
2021/05/13 02:21:43;;;;;;;34.30;29.03;;;;;;;8.37;100.00;95234.34;1049473;28;20027;-49
2021/05/13 02:22:14;;;;;;;40.90;30.97;;;;;;;8.37;100.00;95229.09;1049853;28;20073;-50
2021/05/13 02:22:44;;;;;;;39.70;31.10;;;;;;;8.38;100.00;95229.91;1049413;28;20024;-51
2021/05/13 02:23:15;;;;;;;34.60;28.30;;;;;;;8.39;100.00;95226.28;1049359;28;20052;-50
2021/05/13 02:23:46;;;;;;;40.17;30.60;;;;;;;8.33;100.00;95230.50;1049399;28;20028;-50
2021/05/13 02:24:16;;;;;;;40.03;30.63;;;;;;;8.31;100.00;95232.53;1049211;28;20020;-49
2021/05/13 02:24:47;;;;;;;36.47;29.90;;;;;;;8.27;100.00;95226.06;1049531;28;20411;-51
2021/05/13 02:25:17;;;;;;;38.57;30.10;;;;;;;8.24;100.00;95226.47;1049439;28;20078;-51
2021/05/13 02:25:50;;;;;;;40.43;31.73;;;;;;;8.27;100.00;95229.50;1049031;28;20349;-53
2021/05/13 02:26:21;;;;;;;41.40;32.28;;;;;;;8.27;100.00;95223.44;1049406;28;20381;-50
2021/05/13 02:26:51;;;;;;;37.80;29.97;;;;;;;8.14;100.00;95204.09;1040836;28;20083;-50
2021/05/13 02:27:21;;;;;;;37.37;29.17;;;;;;;8.26;100.00;95225.28;1041039;28;20067;-50